createdAt,value
2022-10-16T00:01:46.064Z,5.77
2022-10-16T00:04:14.945Z,5.17
2022-10-16T00:06:42.677Z,6.30
2022-10-16T00:09:10.833Z,5.87
2022-10-16T00:11:43.220Z,6.00
2022-10-16T00:14:17.135Z,6.00
2022-10-16T00:16:44.839Z,4.90
2022-10-16T00:19:13.595Z,5.90
2022-10-16T00:21:41.505Z,5.73
2022-10-16T00:24:11.925Z,5.93
2022-10-16T00:26:41.710Z,5.03
2022-10-16T00:29:10.496Z,5.27
2022-10-16T00:31:38.695Z,5.07
2022-10-16T00:34:06.443Z,4.77
2022-10-16T00:36:34.109Z,5.20
2022-10-16T00:39:02.986Z,4.70
2022-10-16T00:41:33.051Z,5.43
2022-10-16T00:44:54.775Z,5.50
2022-10-16T00:47:52.515Z,5.30
2022-10-16T00:50:36.066Z,4.83
2022-10-16T00:53:05.386Z,5.03
2022-10-16T00:55:33.164Z,4.80
2022-10-16T00:58:01.742Z,5.10
2022-10-16T01:00:29.542Z,5.50
2022-10-16T01:03:23.052Z,5.53
2022-10-16T01:06:36.529Z,4.70
2022-10-16T01:09:41.158Z,4.53
2022-10-16T01:12:51.950Z,5.10
2022-10-16T01:15:42.737Z,4.23
2022-10-16T01:18:20.279Z,4.60
2022-10-16T01:21:25.150Z,4.03
2022-10-16T01:27:36.008Z,3.80
2022-10-16T01:30:26.741Z,4.63
2022-10-16T01:33:11.121Z,4.53
2022-10-16T01:35:54.552Z,4.83
2022-10-16T01:38:39.991Z,4.60
2022-10-16T01:41:28.533Z,4.10
2022-10-16T01:44:18.865Z,3.90
2022-10-16T01:46:53.214Z,3.87
2022-10-16T01:49:34.923Z,3.97
2022-10-16T01:52:21.731Z,3.40
2022-10-16T01:54:57.811Z,3.90
2022-10-16T01:57:28.287Z,3.73
2022-10-16T02:00:08.937Z,3.43
2022-10-16T02:02:48.593Z,3.80
2022-10-16T02:05:54.719Z,3.10
2022-10-16T02:08:30.766Z,3.30
2022-10-16T02:11:02.430Z,3.00
2022-10-16T02:14:02.045Z,3.37
2022-10-16T02:16:46.498Z,3.80
2022-10-16T02:19:21.164Z,3.47
2022-10-16T02:22:05.121Z,3.30
2022-10-16T02:25:03.919Z,2.80
2022-10-16T02:28:08.934Z,3.07
2022-10-16T02:31:05.883Z,2.93
2022-10-16T02:33:37.455Z,3.33
2022-10-16T02:36:06.231Z,3.37
2022-10-16T02:38:35.413Z,2.80
2022-10-16T02:41:04.534Z,2.90
2022-10-16T02:43:32.419Z,2.30
2022-10-16T02:46:00.426Z,1.87
2022-10-16T02:48:28.083Z,2.43
2022-10-16T02:50:55.939Z,2.53
2022-10-16T02:53:23.664Z,2.77
2022-10-16T02:55:51.341Z,1.90
2022-10-16T02:58:18.957Z,2.67
2022-10-16T03:00:47.082Z,2.83
2022-10-16T03:03:14.794Z,2.13
2022-10-16T03:05:46.826Z,2.23
2022-10-16T03:08:15.349Z,2.80
2022-10-16T03:10:43.570Z,3.57
2022-10-16T03:13:11.124Z,3.50
2022-10-16T03:15:38.740Z,3.63
2022-10-16T03:18:06.404Z,2.77
2022-10-16T03:20:34.712Z,3.07
2022-10-16T03:23:03.633Z,2.33
2022-10-16T03:25:31.312Z,2.50
2022-10-16T03:27:58.890Z,2.70
2022-10-16T03:30:26.584Z,2.20
2022-10-16T03:32:55.224Z,2.17
2022-10-16T03:35:26.337Z,2.10
2022-10-16T03:37:54.478Z,1.87
2022-10-16T03:40:23.368Z,1.97
2022-10-16T03:42:51.044Z,1.80
2022-10-16T03:45:18.840Z,1.70
2022-10-16T03:47:46.458Z,1.80
2022-10-16T03:50:14.059Z,1.83
2022-10-16T03:52:41.739Z,1.67
2022-10-16T03:55:09.942Z,1.60
2022-10-16T03:57:37.691Z,1.67
2022-10-16T04:00:06.546Z,1.50
2022-10-16T04:02:40.340Z,1.80
2022-10-16T04:05:09.067Z,1.40
2022-10-16T04:07:37.246Z,2.07
2022-10-16T04:10:06.381Z,1.93
2022-10-16T04:12:34.174Z,1.80
2022-10-16T04:15:02.044Z,2.00
2022-10-16T04:17:29.753Z,2.17
2022-10-16T04:19:57.401Z,1.90
2022-10-16T04:22:25.121Z,1.50
2022-10-16T04:24:52.605Z,1.77
2022-10-16T04:27:20.388Z,1.87
2022-10-16T04:29:48.176Z,1.70
2022-10-16T04:32:15.923Z,1.70
2022-10-16T04:34:43.537Z,2.03
2022-10-16T04:37:11.252Z,1.70
2022-10-16T04:39:38.936Z,1.80
2022-10-16T04:42:06.691Z,1.77
2022-10-16T04:44:34.896Z,2.20
2022-10-16T04:47:03.449Z,2.00
2022-10-16T04:49:31.156Z,1.83
2022-10-16T04:51:59.503Z,2.00
2022-10-16T04:54:27.321Z,2.60
2022-10-16T04:56:54.928Z,2.77
2022-10-16T04:59:23.846Z,2.00
2022-10-16T05:01:51.803Z,2.40
2022-10-16T05:04:19.427Z,2.10
2022-10-16T05:06:47.107Z,2.00
2022-10-16T05:09:18.255Z,2.50
2022-10-16T05:11:46.550Z,2.20
2022-10-16T05:14:14.297Z,2.07
2022-10-16T05:16:41.975Z,2.20
2022-10-16T05:21:57.726Z,1.80
2022-10-16T05:24:25.357Z,2.50
2022-10-16T05:26:53.454Z,2.07
2022-10-16T05:29:21.896Z,1.90
2022-10-16T05:31:55.037Z,1.80
2022-10-16T05:34:23.109Z,1.83
2022-10-16T05:36:51.224Z,1.80
2022-10-16T05:39:18.933Z,2.23
2022-10-16T05:41:46.770Z,2.07
2022-10-16T05:44:16.851Z,1.70
2022-10-16T05:46:47.460Z,1.90
2022-10-16T05:49:15.894Z,1.70
2022-10-16T05:51:43.606Z,2.50
2022-10-16T05:54:11.469Z,1.90
2022-10-16T05:56:39.144Z,2.07
2022-10-16T05:59:07.521Z,1.87
2022-10-16T06:01:36.399Z,2.23
2022-10-16T06:04:04.185Z,2.50
2022-10-16T06:06:32.084Z,1.97
2022-10-16T06:09:00.845Z,1.70
2022-10-16T06:11:33.826Z,2.27
2022-10-16T06:14:07.597Z,2.73
2022-10-16T06:16:38.717Z,2.60
2022-10-16T06:19:08.291Z,2.27
2022-10-16T06:21:36.390Z,2.30
2022-10-16T06:24:04.326Z,2.03
2022-10-16T06:26:33.257Z,2.40
2022-10-16T06:29:02.447Z,2.10
2022-10-16T06:31:32.846Z,2.40
2022-10-16T06:34:01.751Z,2.13
2022-10-16T06:36:29.752Z,2.07
2022-10-16T06:38:58.011Z,2.40
2022-10-16T06:41:25.577Z,2.60
2022-10-16T06:43:53.553Z,2.13
2022-10-16T06:46:26.172Z,2.00
2022-10-16T06:48:55.224Z,2.20
2022-10-16T06:51:26.477Z,1.90
2022-10-16T06:54:04.165Z,1.80
2022-10-16T06:56:35.161Z,1.67
2022-10-16T06:59:04.595Z,2.50
2022-10-16T07:01:33.954Z,2.10
2022-10-16T07:04:03.308Z,1.60
2022-10-16T07:06:35.440Z,1.80
2022-10-16T07:09:10.538Z,2.07
2022-10-16T07:11:41.791Z,2.10
2022-10-16T07:14:22.363Z,2.50
2022-10-16T07:16:50.497Z,2.30
2022-10-16T07:19:19.245Z,2.37
2022-10-16T07:21:47.339Z,2.17
2022-10-16T07:24:18.243Z,2.97
2022-10-16T07:26:47.617Z,2.50
2022-10-16T07:29:21.589Z,3.07
2022-10-16T07:31:50.947Z,2.90
2022-10-16T07:34:22.922Z,2.37
2022-10-16T07:36:52.093Z,2.10
2022-10-16T07:39:19.994Z,3.23
2022-10-16T07:41:47.644Z,2.73
2022-10-16T07:44:17.025Z,2.13
2022-10-16T07:46:44.760Z,2.47
2022-10-16T07:49:12.498Z,2.30
2022-10-16T07:51:40.444Z,2.97
2022-10-16T07:54:11.005Z,2.43
2022-10-16T07:56:42.924Z,2.20
2022-10-16T07:59:12.356Z,2.80
2022-10-16T08:01:40.228Z,2.77
2022-10-16T08:04:08.041Z,2.20
2022-10-16T08:06:41.317Z,2.00
2022-10-16T08:09:10.815Z,1.93
2022-10-16T08:11:41.605Z,2.20
2022-10-16T08:14:09.472Z,1.83
2022-10-16T08:16:37.350Z,1.90
2022-10-16T08:19:05.242Z,1.70
2022-10-16T08:21:32.850Z,2.23
2022-10-16T08:24:01.323Z,1.90
2022-10-16T08:26:29.412Z,1.60
2022-10-16T08:28:57.581Z,1.60
2022-10-16T08:31:27.338Z,1.47
2022-10-16T08:33:55.281Z,1.70
2022-10-16T08:36:23.026Z,1.90
2022-10-16T08:38:53.200Z,1.80
2022-10-16T08:41:47.965Z,1.37
2022-10-16T08:45:01.660Z,2.00
2022-10-16T08:47:55.232Z,1.47
2022-10-16T08:50:32.227Z,1.97
2022-10-16T08:53:00.720Z,1.60
2022-10-16T08:55:47.992Z,1.63
2022-10-16T08:58:37.645Z,1.83
2022-10-16T09:01:20.095Z,1.97
2022-10-16T09:04:57.386Z,1.70
2022-10-16T09:08:25.714Z,2.30
2022-10-16T09:11:06.209Z,1.60
2022-10-16T09:14:39.184Z,1.80
2022-10-16T09:17:36.954Z,1.73
2022-10-16T09:20:40.897Z,1.70
2022-10-16T09:23:27.521Z,1.50
2022-10-16T09:25:59.849Z,2.07
2022-10-16T09:28:28.155Z,1.70
2022-10-16T09:30:56.156Z,1.73
2022-10-16T09:33:37.664Z,1.63
2022-10-16T09:36:07.908Z,2.43
2022-10-16T09:38:38.312Z,1.70
2022-10-16T09:41:24.082Z,1.90
2022-10-16T09:44:03.401Z,1.90
2022-10-16T09:46:38.812Z,1.90
2022-10-16T09:49:28.065Z,1.83
2022-10-16T09:52:17.860Z,1.90
2022-10-16T09:55:00.249Z,1.90
2022-10-16T09:57:31.200Z,1.93
2022-10-16T10:00:10.810Z,1.53
2022-10-16T10:02:40.368Z,2.03
2022-10-16T10:05:27.431Z,1.83
2022-10-16T10:08:09.427Z,1.60
2022-10-16T10:10:44.654Z,1.70
2022-10-16T10:13:26.040Z,1.60
2022-10-16T10:15:55.357Z,1.67
2022-10-16T10:18:25.114Z,1.60
2022-10-16T10:21:06.290Z,1.80
2022-10-16T10:23:34.427Z,1.97
2022-10-16T10:26:25.564Z,2.20
2022-10-16T10:29:34.148Z,3.30
2022-10-16T10:32:53.472Z,2.97
2022-10-16T10:35:56.849Z,2.20
2022-10-16T10:39:41.488Z,2.10
2022-10-16T10:42:49.419Z,1.90
2022-10-16T10:45:25.356Z,2.00
2022-10-16T10:48:45.221Z,2.40
2022-10-16T10:51:41.688Z,1.80
2022-10-16T10:54:42.135Z,2.00
2022-10-16T10:58:08.489Z,2.23
2022-10-16T11:01:05.228Z,2.27
2022-10-16T11:05:18.873Z,2.97
2022-10-16T11:08:10.832Z,2.10
2022-10-16T11:11:26.850Z,1.67
2022-10-16T11:14:19.263Z,1.70
2022-10-16T11:17:27.106Z,1.70
2022-10-16T11:20:24.322Z,1.93
2022-10-16T11:23:49.506Z,2.43
2022-10-16T11:26:36.957Z,2.27
2022-10-16T11:29:24.224Z,2.67
2022-10-16T11:32:22.588Z,1.43
2022-10-16T11:35:16.792Z,1.60
2022-10-16T11:37:52.566Z,1.60
2022-10-16T11:40:42.737Z,2.10
2022-10-16T11:43:57.490Z,1.40
2022-10-16T11:46:31.129Z,1.50
2022-10-16T11:49:24.011Z,1.50
2022-10-16T11:52:33.479Z,1.40
2022-10-16T11:55:25.460Z,1.60
2022-10-16T11:58:48.728Z,1.60
2022-10-16T12:01:44.989Z,1.57
2022-10-16T12:04:54.160Z,1.37
2022-10-16T12:07:48.364Z,2.03
2022-10-16T12:13:39.632Z,1.93
2022-10-16T12:16:13.379Z,2.40
2022-10-16T12:18:49.948Z,1.70
2022-10-16T12:21:30.855Z,1.27
2022-10-16T12:24:05.783Z,1.10
2022-10-16T12:26:42.828Z,1.17
2022-10-16T12:29:40.410Z,1.30
2022-10-16T12:32:49.517Z,1.50
2022-10-16T12:35:33.905Z,1.20
2022-10-16T12:38:39.418Z,1.17
2022-10-16T12:41:11.917Z,1.50
2022-10-16T12:43:48.991Z,1.50
2022-10-16T12:46:16.642Z,1.00
2022-10-16T12:49:05.238Z,1.37
2022-10-16T12:51:33.866Z,1.60
2022-10-16T12:54:11.208Z,1.00
2022-10-16T12:57:38.996Z,1.40
2022-10-16T13:00:23.050Z,1.53
2022-10-16T13:04:06.679Z,1.17
2022-10-16T13:06:54.231Z,2.00
2022-10-16T13:10:31.060Z,1.60
2022-10-16T13:13:51.953Z,1.20
2022-10-16T13:17:03.177Z,1.43
2022-10-16T13:20:13.993Z,1.20
2022-10-16T13:24:02.656Z,1.00
2022-10-16T13:27:02.599Z,1.30
2022-10-16T13:29:35.462Z,0.90
2022-10-16T13:32:15.569Z,1.13
2022-10-16T13:34:50.467Z,1.20
2022-10-16T13:37:25.724Z,1.57
2022-10-16T13:40:29.590Z,1.20
2022-10-16T13:42:57.311Z,1.47
2022-10-16T13:45:27.391Z,1.20
2022-10-16T13:48:14.591Z,1.73
2022-10-16T13:50:42.231Z,1.37
2022-10-16T13:53:16.513Z,2.97
2022-10-16T13:55:44.140Z,1.53
2022-10-16T13:58:16.829Z,1.60
2022-10-16T14:01:09.163Z,1.20
2022-10-16T14:03:37.049Z,1.80
2022-10-16T14:06:19.536Z,3.03
2022-10-16T14:09:27.319Z,1.90
2022-10-16T14:12:08.571Z,1.70
2022-10-16T14:14:54.089Z,1.53
2022-10-16T14:17:36.961Z,1.10
2022-10-16T14:20:16.806Z,1.20
2022-10-16T14:22:45.381Z,1.53
2022-10-16T14:25:27.670Z,1.47
2022-10-16T14:28:24.259Z,1.20
2022-10-16T14:31:00.748Z,2.83
2022-10-16T14:33:31.332Z,1.80
2022-10-16T14:36:19.610Z,1.20
2022-10-16T14:39:18.827Z,1.20
2022-10-16T14:41:53.097Z,1.20
2022-10-16T14:44:34.427Z,1.20
2022-10-16T14:47:26.400Z,1.40
2022-10-16T14:49:58.653Z,1.10
2022-10-16T14:52:26.727Z,1.10
2022-10-16T14:54:55.874Z,1.33
2022-10-16T14:57:32.700Z,1.10
2022-10-16T15:00:00.760Z,1.30
2022-10-16T15:02:36.155Z,1.23
2022-10-16T15:05:27.753Z,1.37
2022-10-16T15:07:56.917Z,2.07
2022-10-16T15:10:30.282Z,1.60
2022-10-16T15:12:57.879Z,1.60
2022-10-16T15:15:45.620Z,1.10
2022-10-16T15:18:15.876Z,1.27
2022-10-16T15:20:44.589Z,1.00
2022-10-16T15:23:23.772Z,1.30
2022-10-16T15:25:58.054Z,1.37
2022-10-16T15:28:27.521Z,1.30
2022-10-16T15:30:58.498Z,1.40
2022-10-16T15:33:37.045Z,1.67
2022-10-16T15:36:08.553Z,1.30
2022-10-16T15:38:37.152Z,1.60
2022-10-16T15:41:05.189Z,1.70
2022-10-16T15:43:32.870Z,1.53
2022-10-16T15:46:15.374Z,1.50
2022-10-16T15:48:44.215Z,1.40
2022-10-16T15:51:12.340Z,2.10
2022-10-16T15:53:40.027Z,2.27
2022-10-16T15:56:11.485Z,3.80
2022-10-16T15:58:41.013Z,3.50
2022-10-16T16:01:10.938Z,3.67
2022-10-16T16:03:43.281Z,3.13
2022-10-16T16:06:15.279Z,3.33
2022-10-16T16:08:42.964Z,3.30
2022-10-16T16:11:17.825Z,3.83
2022-10-16T16:13:45.512Z,3.47
2022-10-16T16:16:18.746Z,5.40
2022-10-16T16:18:46.692Z,4.57
2022-10-16T16:21:15.292Z,3.70
2022-10-16T16:23:42.949Z,4.13
2022-10-16T16:26:37.047Z,3.40
2022-10-16T16:29:05.978Z,3.47
2022-10-16T16:31:35.892Z,3.57
2022-10-16T16:34:04.157Z,4.90
2022-10-16T16:36:33.216Z,3.60
2022-10-16T16:39:00.954Z,2.90
2022-10-16T16:41:31.849Z,2.93
2022-10-16T16:44:13.642Z,3.13
2022-10-16T16:46:44.529Z,3.40
2022-10-16T16:49:16.023Z,3.10
2022-10-16T16:51:44.219Z,3.13
2022-10-16T16:54:13.924Z,3.57
2022-10-16T16:56:44.036Z,4.30
2022-10-16T16:59:23.121Z,4.87
2022-10-16T17:01:56.650Z,4.97
2022-10-16T17:04:24.976Z,3.20
2022-10-16T17:06:55.741Z,3.73
2022-10-16T17:09:24.217Z,3.97
2022-10-16T17:11:52.114Z,4.23
2022-10-16T17:14:20.092Z,3.63
2022-10-16T17:16:49.333Z,3.13
2022-10-16T17:19:21.206Z,4.60
2022-10-16T17:21:53.194Z,3.80
2022-10-16T17:24:21.528Z,3.30
2022-10-16T17:26:50.100Z,3.67
2022-10-16T17:29:19.768Z,3.80
2022-10-16T17:31:49.952Z,4.37
2022-10-16T17:34:18.300Z,3.67
2022-10-16T17:36:47.313Z,5.23
2022-10-16T17:39:18.202Z,4.50
2022-10-16T17:41:48.495Z,3.87
2022-10-16T17:44:20.240Z,4.03
2022-10-16T17:46:54.048Z,3.63
2022-10-16T17:51:55.829Z,4.00
2022-10-16T17:54:23.460Z,5.30
2022-10-16T17:56:51.235Z,4.97
2022-10-16T17:59:23.251Z,4.47
2022-10-16T18:01:51.333Z,3.70
2022-10-16T18:04:19.047Z,4.40
2022-10-16T18:06:48.013Z,4.90
2022-10-16T18:09:19.416Z,4.03
2022-10-16T18:11:49.339Z,3.40
2022-10-16T18:14:18.989Z,4.20
2022-10-16T18:16:46.642Z,3.80
2022-10-16T18:19:14.592Z,4.20
2022-10-16T18:21:42.719Z,3.80
2022-10-16T18:24:11.026Z,3.73
2022-10-16T18:26:39.645Z,3.80
2022-10-16T18:29:08.013Z,3.87
2022-10-16T18:31:37.890Z,3.70
2022-10-16T18:34:09.229Z,3.03
2022-10-16T18:36:37.260Z,2.57
2022-10-16T18:39:11.589Z,2.70
2022-10-16T18:41:47.574Z,3.07
2022-10-16T18:44:15.450Z,2.87
2022-10-16T18:46:44.061Z,2.47
2022-10-16T18:49:12.333Z,2.67
2022-10-16T18:51:42.406Z,2.70
2022-10-16T18:54:13.383Z,2.70
2022-10-16T18:56:41.748Z,3.53
2022-10-16T18:59:10.958Z,3.00
2022-10-16T19:01:39.717Z,3.47
2022-10-16T19:04:17.578Z,2.80
2022-10-16T19:06:52.813Z,3.07
2022-10-16T19:09:24.268Z,3.50
2022-10-16T19:14:25.367Z,3.10
2022-10-16T19:16:52.967Z,3.60
2022-10-16T19:19:22.666Z,3.10
2022-10-16T19:21:56.145Z,4.20
2022-10-16T19:24:24.426Z,3.47
2022-10-16T19:26:52.009Z,3.90
2022-10-16T19:29:19.836Z,3.90
2022-10-16T19:31:47.415Z,6.00
2022-10-16T19:34:15.117Z,4.17
2022-10-16T19:36:42.910Z,8.60
2022-10-16T19:41:48.396Z,4.93
2022-10-16T19:44:18.229Z,5.63
2022-10-16T19:46:50.252Z,5.50
2022-10-16T19:49:21.765Z,5.43
2022-10-16T19:51:54.695Z,5.10
2022-10-16T19:54:22.348Z,5.87
2022-10-16T19:56:50.682Z,6.17
2022-10-16T19:59:20.350Z,6.77
2022-10-16T20:01:48.606Z,5.70
2022-10-16T20:04:16.967Z,5.50
2022-10-16T20:06:45.226Z,7.13
2022-10-16T20:09:14.164Z,6.50
2022-10-16T20:11:41.963Z,6.40
2022-10-16T20:14:10.276Z,6.03
2022-10-16T20:16:37.968Z,6.97
2022-10-16T20:19:05.600Z,6.17
2022-10-16T20:21:36.537Z,5.70
2022-10-16T20:24:06.735Z,6.20
2022-10-16T20:26:35.988Z,5.97
2022-10-16T20:29:06.533Z,6.37
2022-10-16T20:31:35.896Z,6.47
2022-10-16T20:34:12.281Z,6.37
2022-10-16T20:36:45.328Z,5.93
2022-10-16T20:39:16.288Z,6.87
2022-10-16T20:41:43.981Z,7.07
2022-10-16T20:44:11.637Z,5.50
2022-10-16T20:46:39.533Z,6.57
2022-10-16T20:49:11.509Z,6.13
2022-10-16T20:51:45.727Z,6.40
2022-10-16T20:54:13.413Z,6.07
2022-10-16T20:56:42.488Z,5.80
2022-10-16T20:59:13.083Z,6.20
2022-10-16T21:01:41.777Z,5.63
2022-10-16T21:04:10.599Z,7.23
2022-10-16T21:06:40.695Z,7.70
2022-10-16T21:09:09.393Z,7.47
2022-10-16T21:11:39.075Z,6.70
2022-10-16T21:14:09.621Z,6.60
2022-10-16T21:16:37.814Z,5.67
2022-10-16T21:19:06.331Z,5.17
2022-10-16T21:21:39.353Z,6.80
2022-10-16T21:24:12.109Z,7.20
2022-10-16T21:26:43.165Z,6.80
2022-10-16T21:29:11.632Z,7.20
2022-10-16T21:31:41.028Z,6.93
2022-10-16T21:34:09.022Z,6.03
2022-10-16T21:36:41.364Z,6.53
2022-10-16T21:39:16.883Z,7.20
2022-10-16T21:41:50.526Z,7.23
2022-10-16T21:44:20.293Z,6.70
2022-10-16T21:46:48.274Z,6.47
2022-10-16T21:49:20.064Z,7.13
2022-10-16T21:51:51.356Z,7.00
2022-10-16T21:54:23.650Z,6.87
2022-10-16T21:56:53.084Z,6.93
2022-10-16T21:59:21.607Z,6.23
2022-10-16T22:01:49.411Z,6.43
2022-10-16T22:04:17.726Z,5.80
2022-10-16T22:06:46.069Z,7.20
2022-10-16T22:09:16.089Z,6.97
2022-10-16T22:11:45.604Z,8.00
2022-10-16T22:14:21.166Z,7.13
2022-10-16T22:16:50.481Z,7.50
2022-10-16T22:19:22.260Z,7.50
2022-10-16T22:21:57.187Z,6.63
2022-10-16T22:24:25.463Z,7.07
2022-10-16T22:26:53.204Z,7.40
2022-10-16T22:29:21.536Z,7.20
2022-10-16T22:31:53.605Z,6.80
2022-10-16T22:34:21.454Z,7.67
2022-10-16T22:36:50.868Z,6.20
2022-10-16T22:39:19.696Z,7.00
2022-10-16T22:41:47.379Z,12.20
2022-10-16T22:44:15.039Z,13.20
2022-10-16T22:46:42.808Z,8.90
2022-10-16T22:49:10.645Z,8.23
2022-10-16T22:51:38.220Z,7.87
2022-10-16T22:54:05.950Z,8.20
2022-10-16T22:56:33.610Z,9.57
2022-10-16T22:59:01.243Z,8.20
2022-10-16T23:01:41.862Z,12.00
2022-10-16T23:04:10.491Z,8.10
2022-10-16T23:06:52.894Z,8.57
2022-10-16T23:09:25.096Z,10.60
2022-10-16T23:11:53.954Z,11.00
2022-10-16T23:14:29.265Z,11.27
2022-10-16T23:16:58.141Z,9.50
2022-10-16T23:19:25.859Z,9.80
2022-10-16T23:21:53.584Z,9.83
2022-10-16T23:24:21.204Z,9.40
2022-10-16T23:26:48.866Z,9.50
2022-10-16T23:29:17.124Z,9.53
2022-10-16T23:31:44.641Z,10.50
2022-10-16T23:34:12.460Z,12.27
2022-10-16T23:36:40.090Z,9.83
2022-10-16T23:39:07.776Z,10.63
2022-10-16T23:41:35.556Z,11.07
2022-10-16T23:44:03.459Z,10.87
2022-10-16T23:46:31.317Z,11.43
2022-10-16T23:48:59.619Z,11.67
2022-10-16T23:51:27.540Z,10.70
2022-10-16T23:53:55.502Z,9.70
2022-10-16T23:56:23.472Z,8.93
2022-10-16T23:58:54.797Z,9.20
